createdAt,value
2018-01-31T01:52:58.509Z,8.67
2018-01-31T01:55:29.584Z,8.76
2018-01-31T01:58:00.698Z,8.82
2018-01-31T02:00:31.779Z,8.73
2018-01-31T02:03:02.837Z,8.68
2018-01-31T02:05:34.018Z,8.74
2018-01-31T02:08:05.112Z,8.82
2018-01-31T02:10:36.201Z,8.77
2018-01-31T02:13:07.297Z,8.82
2018-01-31T02:15:38.404Z,8.83
2018-01-31T02:18:09.526Z,8.84
2018-01-31T02:20:40.569Z,8.83
2018-01-31T02:23:11.682Z,8.83
2018-01-31T02:25:42.758Z,8.81
2018-01-31T02:28:13.814Z,8.77
2018-01-31T02:30:44.934Z,8.77
2018-01-31T02:33:15.970Z,8.77
2018-01-31T02:35:47.110Z,8.83
2018-01-31T02:38:30.444Z,8.84
2018-01-31T02:41:01.515Z,8.72
2018-01-31T02:43:32.562Z,8.65
2018-01-31T02:46:03.700Z,8.67
2018-01-31T02:48:34.781Z,8.67
2018-01-31T02:51:05.879Z,8.64
2018-01-31T02:53:36.951Z,8.61
2018-01-31T02:56:08.078Z,8.60
2018-01-31T02:58:39.129Z,8.61
2018-01-31T03:01:10.231Z,8.60
2018-01-31T03:03:47.458Z,8.62
2018-01-31T03:06:18.508Z,8.57
2018-01-31T03:08:49.567Z,8.55
2018-01-31T03:11:20.640Z,8.46
2018-01-31T03:13:51.715Z,8.44
2018-01-31T03:16:22.811Z,8.46
2018-01-31T03:18:53.901Z,8.44
2018-01-31T03:21:25.013Z,8.43
2018-01-31T03:23:56.074Z,8.43
2018-01-31T03:26:27.189Z,8.40
2018-01-31T03:28:58.226Z,8.35
2018-01-31T03:31:29.300Z,8.25
2018-01-31T03:34:00.338Z,8.17
2018-01-31T03:36:31.438Z,8.07
2018-01-31T03:39:02.558Z,7.93
2018-01-31T03:41:33.623Z,7.88
2018-01-31T03:44:04.691Z,7.85
2018-01-31T03:46:35.784Z,7.86
2018-01-31T03:49:06.866Z,7.93
2018-01-31T03:51:37.929Z,8.03
2018-01-31T03:54:09.002Z,8.09
2018-01-31T03:56:40.090Z,8.14
2018-01-31T03:59:11.200Z,8.15
2018-01-31T04:01:42.315Z,8.17
2018-01-31T04:04:13.421Z,8.17
2018-01-31T04:06:44.481Z,8.21
2018-01-31T04:09:15.550Z,8.23
2018-01-31T04:11:46.641Z,8.22
2018-01-31T04:14:17.763Z,8.20
2018-01-31T04:16:48.851Z,8.19
2018-01-31T04:19:19.945Z,8.18
2018-01-31T04:21:51.010Z,8.16
2018-01-31T04:24:22.061Z,8.14
2018-01-31T04:26:53.181Z,8.04
2018-01-31T04:29:24.288Z,7.92
2018-01-31T04:31:55.355Z,7.73
2018-01-31T04:34:26.485Z,7.56
2018-01-31T04:36:57.583Z,7.45
2018-01-31T04:39:28.727Z,7.35
2018-01-31T04:41:59.831Z,7.24
2018-01-31T04:44:30.976Z,7.19
2018-01-31T04:47:02.038Z,7.20
2018-01-31T04:49:33.157Z,7.24
2018-01-31T04:52:04.220Z,7.25
2018-01-31T04:54:35.331Z,7.19
2018-01-31T04:57:06.393Z,7.13
2018-01-31T04:59:37.510Z,7.07
2018-01-31T05:02:08.597Z,6.99
2018-01-31T05:04:39.691Z,6.93
2018-01-31T05:07:11.556Z,6.87
2018-01-31T05:09:42.643Z,6.78
2018-01-31T05:12:13.698Z,6.72
2018-01-31T05:14:44.767Z,6.64
2018-01-31T05:17:15.842Z,6.56
2018-01-31T05:19:46.920Z,6.52
2018-01-31T05:22:17.997Z,6.50
2018-01-31T05:24:49.147Z,6.48
2018-01-31T05:27:20.181Z,6.44
2018-01-31T05:29:51.274Z,6.41
2018-01-31T05:32:22.347Z,6.39
2018-01-31T05:34:53.454Z,6.37
2018-01-31T05:37:24.478Z,6.35
2018-01-31T05:39:55.638Z,6.33
2018-01-31T05:42:26.681Z,6.28
2018-01-31T05:44:57.822Z,6.28
2018-01-31T05:47:28.905Z,6.25
2018-01-31T05:50:00.049Z,6.23
2018-01-31T05:52:31.824Z,6.20
2018-01-31T05:55:02.886Z,6.14
2018-01-31T05:57:34.016Z,6.14
2018-01-31T06:00:05.104Z,6.15
2018-01-31T06:02:36.226Z,6.16
2018-01-31T06:05:07.294Z,6.17
2018-01-31T06:07:38.382Z,6.21
2018-01-31T06:10:09.471Z,6.25
2018-01-31T06:12:40.540Z,6.28
2018-01-31T06:15:11.627Z,6.29
2018-01-31T06:17:42.769Z,6.29
2018-01-31T06:20:13.850Z,6.27
2018-01-31T06:22:44.959Z,6.27
2018-01-31T06:25:16.036Z,6.23
2018-01-31T06:27:47.731Z,6.19
2018-01-31T06:30:18.804Z,6.16
2018-01-31T06:32:49.915Z,6.15
2018-01-31T06:35:21.105Z,6.18
2018-01-31T06:37:52.168Z,6.21
2018-01-31T06:40:23.230Z,6.23
2018-01-31T06:42:54.270Z,6.24
2018-01-31T06:45:25.412Z,6.22
2018-01-31T06:47:56.607Z,6.22
2018-01-31T06:50:27.863Z,6.23
2018-01-31T06:52:58.918Z,6.20
2018-01-31T06:55:30.090Z,6.20
2018-01-31T06:58:01.197Z,6.22
2018-01-31T07:00:32.237Z,6.23
2018-01-31T07:03:03.327Z,6.28
2018-01-31T07:05:34.390Z,6.31
2018-01-31T07:08:05.511Z,6.35
2018-01-31T07:10:36.586Z,6.40
2018-01-31T07:13:07.662Z,6.45
2018-01-31T07:15:38.765Z,6.47
2018-01-31T07:18:09.932Z,6.51
2018-01-31T07:20:41.001Z,6.58
2018-01-31T07:23:12.202Z,6.66
2018-01-31T07:25:43.263Z,6.73
2018-01-31T07:28:14.322Z,6.82
2018-01-31T07:30:45.364Z,6.86
2018-01-31T07:33:16.494Z,6.93
2018-01-31T07:35:47.563Z,6.99
2018-01-31T07:38:18.649Z,7.07
2018-01-31T07:40:49.861Z,7.12
2018-01-31T07:43:21.067Z,7.20
2018-01-31T07:45:52.189Z,7.25
2018-01-31T07:48:23.233Z,7.30
2018-01-31T07:50:54.303Z,7.36
2018-01-31T07:53:25.415Z,7.40
2018-01-31T07:55:56.502Z,7.47
2018-01-31T07:58:27.565Z,7.51
2018-01-31T08:00:58.700Z,7.57
2018-01-31T08:03:29.777Z,7.62
2018-01-31T08:06:00.902Z,7.61
2018-01-31T08:08:32.011Z,7.65
2018-01-31T08:11:03.108Z,7.62
2018-01-31T08:13:34.187Z,7.66
2018-01-31T08:16:05.318Z,7.73
2018-01-31T08:18:36.395Z,7.76
2018-01-31T08:21:07.491Z,7.83
2018-01-31T08:23:38.535Z,7.92
2018-01-31T08:26:09.676Z,8.01
2018-01-31T08:28:40.829Z,8.17
2018-01-31T08:31:11.949Z,8.21
2018-01-31T08:33:43.097Z,8.23
2018-01-31T08:36:14.222Z,8.35
2018-01-31T08:38:45.272Z,8.45
2018-01-31T08:41:16.413Z,8.54
2018-01-31T08:43:47.503Z,8.69
2018-01-31T08:46:18.636Z,8.89
2018-01-31T08:48:49.690Z,9.06
2018-01-31T08:51:20.781Z,9.23
2018-01-31T08:53:51.884Z,9.42
2018-01-31T08:56:23.102Z,10.20
2018-01-31T08:58:54.168Z,13.49
2018-01-31T09:01:25.295Z,16.98
2018-01-31T09:03:56.316Z,19.53
2018-01-31T09:06:27.455Z,21.04
2018-01-31T09:08:58.520Z,21.57
2018-01-31T09:11:29.652Z,22.09
2018-01-31T09:14:00.708Z,22.85
2018-01-31T09:16:31.781Z,23.42
2018-01-31T09:19:02.836Z,23.99
2018-01-31T09:21:33.945Z,23.79
2018-01-31T09:24:05.063Z,23.64
2018-01-31T09:26:36.124Z,23.77
2018-01-31T09:29:07.987Z,24.79
2018-01-31T09:31:39.039Z,25.05
2018-01-31T09:34:10.151Z,25.36
2018-01-31T09:36:41.223Z,26.30
2018-01-31T09:39:12.317Z,25.92
2018-01-31T09:41:43.418Z,24.10
2018-01-31T09:44:14.599Z,21.95
2018-01-31T09:46:45.656Z,20.59
2018-01-31T09:49:16.714Z,19.02
2018-01-31T09:51:47.799Z,17.76
2018-01-31T09:54:18.917Z,16.62
2018-01-31T09:56:49.959Z,15.97
2018-01-31T09:59:21.818Z,15.39
2018-01-31T10:01:52.873Z,14.90
2018-01-31T10:04:24.026Z,15.06
2018-01-31T10:06:55.228Z,15.21
2018-01-31T10:09:26.340Z,15.50
2018-01-31T10:11:57.386Z,15.67
2018-01-31T10:14:28.494Z,15.56
2018-01-31T10:16:59.604Z,15.53
2018-01-31T10:19:30.702Z,15.57
2018-01-31T10:22:01.791Z,15.32
2018-01-31T10:24:32.859Z,15.00
2018-01-31T10:27:03.986Z,15.02
2018-01-31T10:29:35.062Z,15.36
2018-01-31T10:32:06.176Z,15.74
2018-01-31T10:34:37.246Z,16.11
2018-01-31T10:37:08.305Z,16.32
2018-01-31T10:39:39.420Z,16.46
2018-01-31T10:42:10.547Z,16.52
2018-01-31T10:44:41.817Z,16.87
2018-01-31T10:47:12.907Z,16.87
2018-01-31T10:49:44.204Z,16.67
2018-01-31T10:52:15.254Z,16.55
2018-01-31T10:57:28.742Z,16.18
2018-01-31T10:59:48.674Z,15.89
2018-01-31T11:02:19.730Z,15.84
2018-01-31T11:04:50.880Z,15.94
2018-01-31T11:07:21.955Z,15.99
2018-01-31T11:09:53.035Z,16.24
2018-01-31T11:12:24.097Z,16.19
2018-01-31T11:14:55.216Z,16.15
2018-01-31T11:17:26.333Z,16.51
2018-01-31T11:19:57.427Z,16.65
2018-01-31T11:22:28.549Z,16.54
2018-01-31T11:25:00.176Z,16.37
2018-01-31T11:27:31.286Z,16.43
2018-01-31T11:30:02.499Z,16.33
2018-01-31T11:32:33.598Z,16.08
2018-01-31T11:35:04.657Z,16.05
2018-01-31T11:37:35.786Z,15.99
2018-01-31T11:40:06.884Z,15.97
2018-01-31T11:42:37.986Z,16.40
2018-01-31T11:45:09.077Z,16.72
2018-01-31T11:47:40.153Z,16.68
2018-01-31T11:50:11.319Z,16.60
2018-01-31T11:52:42.385Z,16.41
2018-01-31T11:55:13.522Z,16.37
2018-01-31T11:57:44.613Z,16.29
2018-01-31T12:00:15.838Z,16.12
2018-01-31T12:02:46.918Z,15.90
2018-01-31T12:05:18.006Z,16.06
2018-01-31T12:07:49.051Z,16.45
2018-01-31T12:10:32.524Z,16.48
2018-01-31T12:13:16.010Z,16.96
2018-01-31T12:19:08.821Z,16.59
2018-01-31T12:21:42.885Z,16.00
2018-01-31T12:24:26.240Z,15.99
2018-01-31T12:27:09.739Z,15.95
2018-01-31T12:29:54.876Z,16.17
2018-01-31T12:35:43.812Z,15.71
2018-01-31T12:38:27.109Z,15.55
2018-01-31T12:40:58.003Z,15.29
2018-01-31T12:43:28.864Z,15.32
2018-01-31T12:46:12.204Z,15.52
2018-01-31T12:48:55.544Z,16.00
2018-01-31T12:51:53.568Z,16.38
2018-01-31T12:54:37.056Z,16.95
2018-01-31T12:57:31.081Z,17.52
2018-01-31T13:00:14.534Z,17.82
2018-01-31T13:06:09.324Z,17.58
2018-01-31T13:08:52.870Z,17.46
2018-01-31T13:11:36.400Z,17.60
2018-01-31T13:14:19.815Z,17.69
2018-01-31T13:17:03.369Z,17.69
2018-01-31T13:19:46.904Z,17.86
2018-01-31T13:22:25.956Z,17.79
2018-01-31T13:25:09.479Z,17.34
2018-01-31T13:27:59.114Z,17.15
2018-01-31T13:30:42.538Z,17.02
2018-01-31T13:33:25.828Z,16.93
2018-01-31T13:36:09.304Z,16.91
2018-01-31T13:38:52.764Z,16.83
2018-01-31T13:41:36.194Z,16.80
2018-01-31T13:44:19.533Z,16.67
2018-01-31T13:47:03.108Z,16.49
2018-01-31T13:49:46.462Z,16.49
2018-01-31T13:52:29.764Z,16.45
2018-01-31T13:55:12.970Z,16.19
2018-01-31T13:57:56.484Z,15.93
2018-01-31T14:00:39.776Z,15.77
2018-01-31T14:03:23.125Z,15.65
2018-01-31T14:09:12.613Z,15.60
2018-01-31T14:11:56.142Z,15.42
2018-01-31T14:14:39.465Z,15.34
2018-01-31T14:17:22.804Z,15.33
2018-01-31T14:20:06.159Z,15.23
2018-01-31T14:22:49.414Z,15.19
2018-01-31T14:25:32.690Z,15.22
2018-01-31T14:28:16.043Z,15.08
2018-01-31T14:30:59.534Z,14.95
2018-01-31T14:36:41.618Z,14.50
2018-01-31T14:39:12.479Z,14.40
2018-01-31T14:41:43.275Z,14.43
2018-01-31T14:44:14.110Z,14.47
2018-01-31T14:46:44.959Z,14.52
2018-01-31T14:49:15.771Z,14.52
2018-01-31T14:51:46.603Z,14.44
2018-01-31T14:54:17.507Z,14.44
2018-01-31T14:56:48.358Z,14.42
2018-01-31T14:59:19.222Z,14.41
2018-01-31T15:01:50.034Z,14.35
2018-01-31T15:04:20.958Z,14.24
2018-01-31T15:06:51.798Z,14.25
2018-01-31T15:09:22.688Z,14.12
2018-01-31T15:11:53.531Z,14.07
2018-01-31T15:14:24.379Z,14.18
2018-01-31T15:16:55.218Z,14.29
2018-01-31T15:19:26.128Z,14.31
2018-01-31T15:21:56.982Z,14.30
2018-01-31T15:24:27.842Z,14.26
2018-01-31T15:26:58.781Z,14.14
2018-01-31T15:29:29.632Z,14.12
2018-01-31T15:32:00.520Z,13.98
2018-01-31T15:34:31.415Z,13.87
2018-01-31T15:37:02.286Z,13.72
2018-01-31T15:39:33.149Z,13.62
2018-01-31T15:42:04.055Z,13.54
2018-01-31T15:44:34.924Z,13.51
2018-01-31T15:47:05.792Z,13.45
2018-01-31T15:49:36.642Z,13.32
2018-01-31T15:52:07.537Z,13.16
2018-01-31T15:54:38.455Z,12.98
2018-01-31T15:57:09.345Z,12.83
2018-01-31T15:59:40.798Z,12.67
2018-01-31T16:02:11.652Z,12.57
2018-01-31T16:04:42.560Z,12.52
2018-01-31T16:07:13.422Z,12.56
2018-01-31T16:09:44.309Z,12.46
2018-01-31T16:12:15.179Z,12.50
2018-01-31T16:14:46.069Z,12.60
2018-01-31T16:17:17.134Z,12.68
2018-01-31T16:20:00.407Z,12.68
2018-01-31T16:22:31.461Z,12.65
2018-01-31T16:25:03.691Z,12.60
2018-01-31T16:27:47.126Z,12.61
2018-01-31T16:30:22.015Z,12.39
2018-01-31T16:33:05.375Z,12.34
2018-01-31T16:35:36.439Z,12.28
2018-01-31T16:38:07.535Z,12.16
2018-01-31T16:40:38.657Z,12.14
2018-01-31T16:43:09.798Z,12.10
2018-01-31T16:45:40.870Z,12.07
2018-01-31T16:48:11.974Z,12.08
2018-01-31T16:50:43.039Z,12.16
2018-01-31T16:53:14.153Z,12.17
2018-01-31T16:55:45.261Z,12.14
2018-01-31T16:58:16.336Z,12.08
2018-01-31T17:00:47.522Z,12.14
2018-01-31T17:03:18.601Z,12.17
2018-01-31T17:05:49.658Z,12.16
2018-01-31T17:08:20.723Z,12.13
2018-01-31T17:10:51.827Z,12.12
2018-01-31T17:13:22.906Z,12.11
2018-01-31T17:15:54.029Z,12.09
2018-01-31T17:18:25.087Z,12.10
2018-01-31T17:20:56.162Z,12.14
2018-01-31T17:23:27.230Z,12.11
2018-01-31T17:25:58.444Z,12.09
2018-01-31T17:28:29.495Z,12.08
2018-01-31T17:31:00.628Z,12.05
2018-01-31T17:33:31.678Z,12.02
2018-01-31T17:36:02.819Z,12.04
2018-01-31T17:38:33.938Z,12.00
2018-01-31T17:41:05.012Z,11.96
2018-01-31T17:43:36.103Z,11.89
2018-01-31T17:46:07.218Z,11.85
2018-01-31T17:48:38.243Z,11.82
2018-01-31T17:51:09.314Z,11.82
2018-01-31T17:53:40.377Z,11.80
2018-01-31T17:56:11.626Z,11.75
2018-01-31T17:58:42.712Z,11.73
2018-01-31T18:01:13.838Z,11.71
2018-01-31T18:03:44.907Z,11.69
2018-01-31T18:06:16.052Z,11.68
2018-01-31T18:08:47.166Z,11.72
2018-01-31T18:11:18.243Z,11.76
2018-01-31T18:13:49.288Z,11.78
2018-01-31T18:16:20.381Z,11.77
2018-01-31T18:18:51.419Z,11.74
2018-01-31T18:21:22.499Z,11.70
2018-01-31T18:23:53.591Z,11.66
2018-01-31T18:26:24.659Z,11.59
2018-01-31T18:28:55.724Z,11.47
2018-01-31T18:31:26.846Z,11.44
2018-01-31T18:33:57.933Z,11.41
2018-01-31T18:36:29.065Z,11.37
2018-01-31T18:39:00.114Z,11.37
2018-01-31T18:41:31.265Z,11.42
2018-01-31T18:44:02.341Z,11.46
2018-01-31T18:46:33.426Z,11.45
2018-01-31T18:49:04.509Z,11.38
2018-01-31T18:51:35.670Z,11.30
2018-01-31T18:54:06.780Z,11.23
2018-01-31T18:56:37.923Z,11.22
2018-01-31T18:59:08.956Z,11.19
2018-01-31T19:01:40.029Z,11.30
2018-01-31T19:04:11.154Z,11.44
2018-01-31T19:06:42.180Z,11.53
2018-01-31T19:09:13.317Z,11.62
2018-01-31T19:11:44.338Z,11.61
2018-01-31T19:14:15.413Z,11.54
2018-01-31T19:16:46.546Z,11.51
2018-01-31T19:19:17.631Z,11.47
2018-01-31T19:21:48.717Z,11.43
2018-01-31T19:24:19.808Z,11.37
2018-01-31T19:26:50.893Z,11.33
2018-01-31T19:29:21.998Z,11.29
2018-01-31T19:31:53.107Z,11.25
2018-01-31T19:34:24.173Z,11.23
2018-01-31T19:36:55.283Z,11.21
2018-01-31T19:39:26.451Z,11.21
2018-01-31T19:41:57.531Z,11.24
2018-01-31T19:44:28.636Z,11.27
2018-01-31T19:46:59.682Z,11.34
2018-01-31T19:49:30.808Z,11.36
2018-01-31T19:52:01.902Z,11.41
2018-01-31T19:54:33.014Z,11.44
2018-01-31T19:57:04.189Z,11.34
2018-01-31T19:59:35.267Z,11.21
2018-01-31T20:02:06.377Z,11.10
2018-01-31T20:04:37.442Z,11.01
2018-01-31T20:07:08.487Z,10.99
2018-01-31T20:09:39.565Z,10.99
2018-01-31T20:12:10.707Z,11.02
2018-01-31T20:14:41.819Z,11.11
2018-01-31T20:17:12.890Z,11.14
2018-01-31T20:19:43.966Z,11.09
2018-01-31T20:22:15.062Z,11.03
2018-01-31T20:24:46.725Z,11.06
2018-01-31T20:27:17.764Z,11.07
2018-01-31T20:29:49.027Z,11.04
2018-01-31T20:32:20.087Z,11.11
2018-01-31T20:34:51.175Z,11.12
2018-01-31T20:37:22.255Z,11.11
2018-01-31T20:39:53.383Z,11.11
2018-01-31T20:42:24.451Z,10.99
2018-01-31T20:44:55.598Z,10.98
2018-01-31T20:47:26.647Z,10.99
2018-01-31T20:49:57.769Z,10.97
2018-01-31T20:52:28.871Z,10.95
2018-01-31T20:55:00.054Z,10.96
2018-01-31T20:57:31.095Z,10.94
2018-01-31T21:00:02.196Z,10.88
2018-01-31T21:02:33.246Z,10.81
2018-01-31T21:05:04.351Z,10.83
2018-01-31T21:07:35.434Z,10.82
2018-01-31T21:10:06.503Z,10.73
2018-01-31T21:12:37.547Z,10.73
2018-01-31T21:15:08.679Z,10.73
2018-01-31T21:17:39.746Z,10.73
2018-01-31T21:20:10.859Z,10.74
2018-01-31T21:22:41.965Z,10.79
2018-01-31T21:25:13.702Z,10.85
2018-01-31T21:27:44.818Z,10.89
2018-01-31T21:30:15.918Z,10.95
2018-01-31T21:32:46.994Z,10.95
2018-01-31T21:35:18.129Z,10.96
2018-01-31T21:37:49.202Z,10.89
2018-01-31T21:40:20.307Z,10.87
2018-01-31T21:42:51.954Z,10.86
2018-01-31T21:45:23.667Z,10.91
2018-01-31T21:47:54.768Z,10.90
2018-01-31T21:50:25.869Z,10.86
2018-01-31T21:52:57.031Z,10.86
2018-01-31T21:55:28.166Z,10.88
2018-01-31T21:57:59.669Z,10.89
2018-01-31T22:00:30.698Z,10.97
2018-01-31T22:03:01.820Z,11.05
2018-01-31T22:05:32.891Z,11.12
2018-01-31T22:08:04.024Z,11.13
2018-01-31T22:10:35.153Z,11.08
2018-01-31T22:13:06.288Z,10.72
2018-01-31T22:15:37.335Z,10.64
2018-01-31T22:18:08.418Z,10.68
2018-01-31T22:20:39.496Z,10.68
2018-01-31T22:23:10.584Z,10.57
2018-01-31T22:25:41.705Z,10.48
2018-01-31T22:28:12.768Z,10.46
2018-01-31T22:30:43.874Z,10.51
2018-01-31T22:33:14.972Z,10.46
2018-01-31T22:35:46.090Z,10.31
2018-01-31T22:38:17.232Z,10.22
2018-01-31T22:40:48.370Z,10.21
2018-01-31T22:43:19.450Z,10.16
2018-01-31T22:45:50.520Z,10.23
2018-01-31T22:48:21.587Z,10.29
2018-01-31T22:50:52.745Z,10.26
2018-01-31T22:53:23.836Z,10.20
2018-01-31T22:55:54.921Z,10.12
2018-01-31T22:58:25.981Z,10.10
2018-01-31T23:00:57.100Z,9.99
2018-01-31T23:03:28.176Z,9.96
2018-01-31T23:05:59.212Z,9.93
2018-01-31T23:08:30.288Z,9.84
2018-01-31T23:11:01.537Z,9.82
2018-01-31T23:13:32.595Z,9.91
2018-01-31T23:16:03.687Z,9.79
2018-01-31T23:18:34.718Z,9.75
2018-01-31T23:21:05.770Z,9.84
2018-01-31T23:23:36.782Z,9.80
2018-01-31T23:26:07.903Z,9.79
2018-01-31T23:28:38.930Z,9.88
2018-01-31T23:31:10.011Z,9.89
2018-01-31T23:33:41.044Z,9.94
2018-01-31T23:36:12.110Z,9.87
2018-01-31T23:38:43.160Z,9.77
2018-01-31T23:41:14.297Z,9.86
2018-01-31T23:43:45.320Z,9.87
2018-01-31T23:46:16.400Z,9.88
2018-01-31T23:48:47.453Z,9.81
2018-01-31T23:51:18.530Z,9.83
2018-01-31T23:53:49.576Z,9.84
2018-01-31T23:56:20.656Z,9.75
2018-01-31T23:58:51.700Z,9.79
